sensor_id;sensor_type;location;lat;lon;timestamp;pressure;altitude;pressure_sealevel;temperature;humidity
64294;BME280;50636;45.596;5.258;2022-10-16T00:01:51;98603.41;;;19.48;61.28
64294;BME280;50636;45.596;5.258;2022-10-16T00:04:17;98606.91;;;19.64;60.34
64294;BME280;50636;45.596;5.258;2022-10-16T00:06:43;98605.06;;;19.65;60.34
64294;BME280;50636;45.596;5.258;2022-10-16T00:09:09;98609.03;;;19.62;60.14
64294;BME280;50636;45.596;5.258;2022-10-16T00:11:37;98608.72;;;19.48;60.17
64294;BME280;50636;45.596;5.258;2022-10-16T00:14:06;98604.94;;;19.34;61.03
64294;BME280;50636;45.596;5.258;2022-10-16T00:16:33;98612.38;;;19.32;60.74
64294;BME280;50636;45.596;5.258;2022-10-16T00:18:59;98617.41;;;19.28;60.78
64294;BME280;50636;45.596;5.258;2022-10-16T00:21:28;98608.59;;;19.23;60.70
64294;BME280;50636;45.596;5.258;2022-10-16T00:24:03;98620.75;;;19.08;60.83
64294;BME280;50636;45.596;5.258;2022-10-16T00:26:30;98618.34;;;19.07;60.87
64294;BME280;50636;45.596;5.258;2022-10-16T00:28:56;98627.91;;;19.03;61.14
64294;BME280;50636;45.596;5.258;2022-10-16T00:31:23;98627.34;;;18.95;61.41
64294;BME280;50636;45.596;5.258;2022-10-16T00:33:49;98624.66;;;18.90;61.64
64294;BME280;50636;45.596;5.258;2022-10-16T00:36:18;98623.03;;;18.89;61.12
64294;BME280;50636;45.596;5.258;2022-10-16T00:38:44;98622.22;;;18.84;61.17
64294;BME280;50636;45.596;5.258;2022-10-16T00:41:13;98618.72;;;18.83;61.44
64294;BME280;50636;45.596;5.258;2022-10-16T00:43:56;98615.53;;;18.81;61.19
64294;BME280;50636;45.596;5.258;2022-10-16T00:46:27;98625.38;;;18.81;61.14
64294;BME280;50636;45.596;5.258;2022-10-16T00:54:14;98619.47;;;18.79;61.31
64294;BME280;50636;45.596;5.258;2022-10-16T00:56:41;98622.66;;;18.75;61.40
64294;BME280;50636;45.596;5.258;2022-10-16T00:59:22;98627.38;;;18.68;61.61
64294;BME280;50636;45.596;5.258;2022-10-16T01:01:50;98622.84;;;18.69;61.45
64294;BME280;50636;45.596;5.258;2022-10-16T01:04:17;98625.41;;;18.86;61.93
64294;BME280;50636;45.596;5.258;2022-10-16T01:06:51;98623.69;;;19.07;60.91
64294;BME280;50636;45.596;5.258;2022-10-16T01:09:26;98622.88;;;19.06;60.43
64294;BME280;50636;45.596;5.258;2022-10-16T01:12:33;98622.56;;;18.98;60.52
64294;BME280;50636;45.596;5.258;2022-10-16T01:17:53;98622.63;;;19.08;60.24
64294;BME280;50636;45.596;5.258;2022-10-16T01:20:30;98623.72;;;19.17;59.81
64294;BME280;50636;45.596;5.258;2022-10-16T01:28:36;98646.63;;;19.18;59.72
64294;BME280;50636;45.596;5.258;2022-10-16T01:31:04;98648.00;;;19.26;59.72
64294;BME280;50636;45.596;5.258;2022-10-16T01:33:42;98650.97;;;19.34;59.42
64294;BME280;50636;45.596;5.258;2022-10-16T01:36:13;98649.97;;;19.51;59.25
64294;BME280;50636;45.596;5.258;2022-10-16T01:38:43;98658.50;;;19.53;58.67
64294;BME280;50636;45.596;5.258;2022-10-16T01:41:27;98660.09;;;19.44;58.99
64294;BME280;50636;45.596;5.258;2022-10-16T01:44:02;98660.59;;;19.41;59.09
64294;BME280;50636;45.596;5.258;2022-10-16T01:46:30;98664.00;;;19.31;59.50
64294;BME280;50636;45.596;5.258;2022-10-16T01:48:57;98665.06;;;19.30;59.79
64294;BME280;50636;45.596;5.258;2022-10-16T01:51:25;98652.56;;;19.30;60.24
64294;BME280;50636;45.596;5.258;2022-10-16T01:53:57;98650.44;;;19.32;60.50
64294;BME280;50636;45.596;5.258;2022-10-16T01:56:25;98642.94;;;19.24;60.10
64294;BME280;50636;45.596;5.258;2022-10-16T01:59:01;98638.09;;;19.16;60.62
64294;BME280;50636;45.596;5.258;2022-10-16T02:01:32;98629.31;;;19.15;61.22
64294;BME280;50636;45.596;5.258;2022-10-16T02:04:03;98630.91;;;19.16;60.81
64294;BME280;50636;45.596;5.258;2022-10-16T02:06:31;98632.19;;;19.09;61.04
64294;BME280;50636;45.596;5.258;2022-10-16T02:08:57;98631.34;;;19.03;61.11
64294;BME280;50636;45.596;5.258;2022-10-16T02:11:24;98620.47;;;19.05;61.35
64294;BME280;50636;45.596;5.258;2022-10-16T02:14:01;98631.41;;;19.08;61.33
64294;BME280;50636;45.596;5.258;2022-10-16T02:16:38;98626.69;;;19.21;61.20
64294;BME280;50636;45.596;5.258;2022-10-16T02:19:04;98637.03;;;19.17;61.44
64294;BME280;50636;45.596;5.258;2022-10-16T02:21:43;98643.91;;;19.08;61.74
64294;BME280;50636;45.596;5.258;2022-10-16T02:24:27;98649.72;;;19.05;62.01
64294;BME280;50636;45.596;5.258;2022-10-16T02:27:03;98654.97;;;18.94;62.47
64294;BME280;50636;45.596;5.258;2022-10-16T02:29:33;98659.28;;;19.01;63.01
64294;BME280;50636;45.596;5.258;2022-10-16T02:32:04;98650.81;;;19.04;62.76
64294;BME280;50636;45.596;5.258;2022-10-16T02:34:33;98639.88;;;19.00;62.95
64294;BME280;50636;45.596;5.258;2022-10-16T02:37:01;98638.34;;;19.14;62.84
64294;BME280;50636;45.596;5.258;2022-10-16T02:39:29;98658.31;;;19.17;62.97
64294;BME280;50636;45.596;5.258;2022-10-16T02:41:56;98656.19;;;19.14;63.02
64294;BME280;50636;45.596;5.258;2022-10-16T02:44:21;98649.47;;;19.06;62.77
64294;BME280;50636;45.596;5.258;2022-10-16T02:46:47;98651.81;;;18.98;63.21
64294;BME280;50636;45.596;5.258;2022-10-16T02:49:12;98646.72;;;18.91;63.67
64294;BME280;50636;45.596;5.258;2022-10-16T02:51:38;98645.41;;;18.93;63.73
64294;BME280;50636;45.596;5.258;2022-10-16T02:54:04;98640.31;;;18.87;64.05
64294;BME280;50636;45.596;5.258;2022-10-16T02:56:30;98646.72;;;18.91;63.95
64294;BME280;50636;45.596;5.258;2022-10-16T02:58:56;98649.59;;;18.84;64.05
64294;BME280;50636;45.596;5.258;2022-10-16T03:01:22;98654.66;;;18.86;64.38
64294;BME280;50636;45.596;5.258;2022-10-16T03:03:48;98659.69;;;18.82;64.76
64294;BME280;50636;45.596;5.258;2022-10-16T03:06:14;98664.75;;;18.84;64.42
64294;BME280;50636;45.596;5.258;2022-10-16T03:08:39;98659.13;;;18.80;64.81
64294;BME280;50636;45.596;5.258;2022-10-16T03:11:05;98663.50;;;18.96;64.84
64294;BME280;50636;45.596;5.258;2022-10-16T03:13:31;98658.44;;;18.95;65.35
64294;BME280;50636;45.596;5.258;2022-10-16T03:15:57;98660.91;;;19.07;65.31
64294;BME280;50636;45.596;5.258;2022-10-16T03:18:22;98653.19;;;19.05;64.57
64294;BME280;50636;45.596;5.258;2022-10-16T03:20:48;98666.72;;;18.99;64.59
64294;BME280;50636;45.596;5.258;2022-10-16T03:23:13;98664.53;;;18.90;64.46
64294;BME280;50636;45.596;5.258;2022-10-16T03:25:39;98660.56;;;18.93;64.75
64294;BME280;50636;45.596;5.258;2022-10-16T03:28:05;98669.19;;;18.78;64.98
64294;BME280;50636;45.596;5.258;2022-10-16T03:30:31;98668.66;;;18.76;66.72
64294;BME280;50636;45.596;5.258;2022-10-16T03:32:57;98664.69;;;18.79;65.62
64294;BME280;50636;45.596;5.258;2022-10-16T03:35:23;98673.72;;;18.77;66.51
64294;BME280;50636;45.596;5.258;2022-10-16T03:37:50;98662.84;;;18.79;66.35
64294;BME280;50636;45.596;5.258;2022-10-16T03:40:16;98671.31;;;18.76;65.58
64294;BME280;50636;45.596;5.258;2022-10-16T03:42:44;98672.03;;;18.66;65.73
64294;BME280;50636;45.596;5.258;2022-10-16T03:45:11;98673.34;;;18.64;66.27
64294;BME280;50636;45.596;5.258;2022-10-16T03:47:37;98671.22;;;18.66;65.95
64294;BME280;50636;45.596;5.258;2022-10-16T03:50:03;98663.19;;;18.61;65.97
64294;BME280;50636;45.596;5.258;2022-10-16T03:52:29;98672.25;;;18.60;66.10
64294;BME280;50636;45.596;5.258;2022-10-16T03:54:55;98676.25;;;18.62;66.15
64294;BME280;50636;45.596;5.258;2022-10-16T03:57:21;98676.00;;;18.64;66.01
64294;BME280;50636;45.596;5.258;2022-10-16T03:59:47;98670.22;;;18.72;65.70
64294;BME280;50636;45.596;5.258;2022-10-16T04:02:13;98659.94;;;18.81;65.19
64294;BME280;50636;45.596;5.258;2022-10-16T04:04:38;98670.53;;;18.75;65.48
64294;BME280;50636;45.596;5.258;2022-10-16T04:07:04;98675.00;;;18.70;65.23
64294;BME280;50636;45.596;5.258;2022-10-16T04:09:30;98669.59;;;18.60;65.67
64294;BME280;50636;45.596;5.258;2022-10-16T04:11:56;98675.38;;;18.51;65.88
64294;BME280;50636;45.596;5.258;2022-10-16T04:14:21;98674.28;;;18.52;66.05
64294;BME280;50636;45.596;5.258;2022-10-16T04:16:47;98665.31;;;18.59;65.92
64294;BME280;50636;45.596;5.258;2022-10-16T04:19:13;98674.63;;;18.61;65.61
64294;BME280;50636;45.596;5.258;2022-10-16T04:21:38;98672.78;;;18.62;65.47
64294;BME280;50636;45.596;5.258;2022-10-16T04:24:04;98675.75;;;18.65;65.40
64294;BME280;50636;45.596;5.258;2022-10-16T04:26:30;98670.72;;;18.69;65.80
64294;BME280;50636;45.596;5.258;2022-10-16T04:28:56;98679.22;;;18.71;65.16
64294;BME280;50636;45.596;5.258;2022-10-16T04:31:21;98675.53;;;18.72;65.18
64294;BME280;50636;45.596;5.258;2022-10-16T04:33:47;98681.94;;;18.76;64.96
64294;BME280;50636;45.596;5.258;2022-10-16T04:36:13;98688.81;;;18.72;64.78
64294;BME280;50636;45.596;5.258;2022-10-16T04:38:39;98682.97;;;18.70;64.82
64294;BME280;50636;45.596;5.258;2022-10-16T04:41:06;98679.22;;;18.71;64.89
64294;BME280;50636;45.596;5.258;2022-10-16T04:43:32;98687.97;;;18.66;65.06
64294;BME280;50636;45.596;5.258;2022-10-16T04:45:58;98681.31;;;18.64;65.08
64294;BME280;50636;45.596;5.258;2022-10-16T04:48:24;98684.22;;;18.62;65.25
64294;BME280;50636;45.596;5.258;2022-10-16T04:50:50;98694.84;;;18.62;65.26
64294;BME280;50636;45.596;5.258;2022-10-16T04:53:16;98683.91;;;18.59;64.91
64294;BME280;50636;45.596;5.258;2022-10-16T04:55:42;98685.00;;;18.58;65.28
64294;BME280;50636;45.596;5.258;2022-10-16T04:58:08;98685.00;;;18.58;65.44
64294;BME280;50636;45.596;5.258;2022-10-16T05:00:34;98689.00;;;18.60;65.07
64294;BME280;50636;45.596;5.258;2022-10-16T05:03:00;98675.94;;;18.59;65.17
64294;BME280;50636;45.596;5.258;2022-10-16T05:05:26;98670.13;;;18.62;65.05
64294;BME280;50636;45.596;5.258;2022-10-16T05:07:53;98676.03;;;18.69;64.83
64294;BME280;50636;45.596;5.258;2022-10-16T05:10:19;98676.25;;;18.62;64.92
64294;BME280;50636;45.596;5.258;2022-10-16T05:12:46;98669.22;;;18.51;65.11
64294;BME280;50636;45.596;5.258;2022-10-16T05:15:12;98681.22;;;18.53;65.41
64294;BME280;50636;45.596;5.258;2022-10-16T05:17:38;98672.28;;;18.65;64.84
64294;BME280;50636;45.596;5.258;2022-10-16T05:20:04;98683.69;;;18.60;64.50
64294;BME280;50636;45.596;5.258;2022-10-16T05:22:30;98692.31;;;18.45;64.72
64294;BME280;50636;45.596;5.258;2022-10-16T05:24:55;98691.22;;;18.41;65.18
64294;BME280;50636;45.596;5.258;2022-10-16T05:27:21;98694.59;;;18.36;65.22
64294;BME280;50636;45.596;5.258;2022-10-16T05:29:48;98687.84;;;18.24;65.53
64294;BME280;50636;45.596;5.258;2022-10-16T05:32:15;98696.06;;;18.22;65.67
64294;BME280;50636;45.596;5.258;2022-10-16T05:34:41;98690.25;;;18.25;65.57
64294;BME280;50636;45.596;5.258;2022-10-16T05:37:07;98691.91;;;18.31;65.48
64294;BME280;50636;45.596;5.258;2022-10-16T05:39:33;98687.16;;;18.33;65.38
64294;BME280;50636;45.596;5.258;2022-10-16T05:41:59;98689.25;;;18.31;65.48
64294;BME280;50636;45.596;5.258;2022-10-16T05:44:25;98691.22;;;18.41;65.13
64294;BME280;50636;45.596;5.258;2022-10-16T05:46:50;98694.13;;;18.40;65.27
64294;BME280;50636;45.596;5.258;2022-10-16T05:49:16;98695.47;;;18.42;65.27
64294;BME280;50636;45.596;5.258;2022-10-16T05:51:42;98701.72;;;18.31;65.61
64294;BME280;50636;45.596;5.258;2022-10-16T05:54:08;98701.47;;;18.32;65.79
64294;BME280;50636;45.596;5.258;2022-10-16T05:56:34;98701.84;;;18.41;65.35
64294;BME280;50636;45.596;5.258;2022-10-16T05:58:59;98710.84;;;18.40;65.22
64294;BME280;50636;45.596;5.258;2022-10-16T06:01:25;98719.03;;;18.33;65.13
64294;BME280;50636;45.596;5.258;2022-10-16T06:03:52;98716.56;;;18.27;65.33
64294;BME280;50636;45.596;5.258;2022-10-16T06:06:20;98717.31;;;18.22;65.72
64294;BME280;50636;45.596;5.258;2022-10-16T06:08:47;98727.75;;;18.07;66.34
64294;BME280;50636;45.596;5.258;2022-10-16T06:11:16;98726.41;;;18.04;66.38
64294;BME280;50636;45.596;5.258;2022-10-16T06:13:42;98733.94;;;18.12;66.14
64294;BME280;50636;45.596;5.258;2022-10-16T06:16:10;98729.13;;;18.31;65.40
64294;BME280;50636;45.596;5.258;2022-10-16T06:18:36;98729.22;;;18.42;64.96
64294;BME280;50636;45.596;5.258;2022-10-16T06:21:14;98729.56;;;18.50;64.34
64294;BME280;50636;45.596;5.258;2022-10-16T06:23:41;98726.34;;;18.48;64.36
64294;BME280;50636;45.596;5.258;2022-10-16T06:26:09;98727.91;;;18.44;64.61
64294;BME280;50636;45.596;5.258;2022-10-16T06:28:36;98719.16;;;18.76;64.04
64294;BME280;50636;45.596;5.258;2022-10-16T06:31:04;98710.03;;;18.94;62.87
64294;BME280;50636;45.596;5.258;2022-10-16T06:33:30;98721.25;;;19.01;62.80
64294;BME280;50636;45.596;5.258;2022-10-16T06:36:15;98712.78;;;19.09;62.30
64294;BME280;50636;45.596;5.258;2022-10-16T06:38:42;98712.84;;;19.14;62.57
64294;BME280;50636;45.596;5.258;2022-10-16T06:41:15;98713.13;;;19.61;61.17
64294;BME280;50636;45.596;5.258;2022-10-16T06:43:42;98724.34;;;20.46;58.54
64294;BME280;50636;45.596;5.258;2022-10-16T06:46:11;98723.38;;;20.88;56.22
64294;BME280;50636;45.596;5.258;2022-10-16T06:48:38;98738.03;;;21.06;55.64
64294;BME280;50636;45.596;5.258;2022-10-16T06:51:30;98747.38;;;21.55;55.28
64294;BME280;50636;45.596;5.258;2022-10-16T06:53:57;98759.00;;;21.85;54.00
64294;BME280;50636;45.596;5.258;2022-10-16T06:56:25;98751.16;;;22.09;52.67
64294;BME280;50636;45.596;5.258;2022-10-16T06:58:51;98759.88;;;22.40;52.36
64294;BME280;50636;45.596;5.258;2022-10-16T07:01:19;98763.38;;;22.80;51.36
64294;BME280;50636;45.596;5.258;2022-10-16T07:03:46;98766.91;;;23.10;49.74
64294;BME280;50636;45.596;5.258;2022-10-16T07:06:15;98764.94;;;22.86;49.89
64294;BME280;50636;45.596;5.258;2022-10-16T07:08:43;98781.78;;;22.87;50.00
64294;BME280;50636;45.596;5.258;2022-10-16T07:11:11;98792.16;;;22.93;49.06
64294;BME280;50636;45.596;5.258;2022-10-16T07:13:39;98798.34;;;22.94;50.38
64294;BME280;50636;45.596;5.258;2022-10-16T07:18:32;98807.50;;;24.53;46.60
64294;BME280;50636;45.596;5.258;2022-10-16T07:21:09;98821.38;;;24.79;46.59
64294;BME280;50636;45.596;5.258;2022-10-16T07:23:35;98813.88;;;25.47;44.47
64294;BME280;50636;45.596;5.258;2022-10-16T07:26:00;98826.13;;;25.53;43.67
64294;BME280;50636;45.596;5.258;2022-10-16T07:28:26;98814.53;;;25.85;42.77
64294;BME280;50636;45.596;5.258;2022-10-16T07:30:52;98816.66;;;26.02;41.84
64294;BME280;50636;45.596;5.258;2022-10-16T07:33:18;98818.34;;;25.38;41.82
64294;BME280;50636;45.596;5.258;2022-10-16T07:35:50;98826.56;;;24.70;43.25
64294;BME280;50636;45.596;5.258;2022-10-16T07:38:16;98822.66;;;24.39;44.29
64294;BME280;50636;45.596;5.258;2022-10-16T07:40:41;98830.66;;;24.68;44.69
64294;BME280;50636;45.596;5.258;2022-10-16T07:43:07;98832.47;;;25.43;42.98
64294;BME280;50636;45.596;5.258;2022-10-16T07:45:33;98830.34;;;25.73;41.66
64294;BME280;50636;45.596;5.258;2022-10-16T07:47:58;98825.88;;;26.38;40.82
64294;BME280;50636;45.596;5.258;2022-10-16T07:50:24;98834.16;;;26.92;39.38
64294;BME280;50636;45.596;5.258;2022-10-16T07:52:50;98832.50;;;27.41;38.04
64294;BME280;50636;45.596;5.258;2022-10-16T07:55:16;98836.94;;;27.99;37.20
64294;BME280;50636;45.596;5.258;2022-10-16T07:57:41;98834.41;;;28.69;35.87
64294;BME280;50636;45.596;5.258;2022-10-16T08:00:07;98822.97;;;29.24;35.06
64294;BME280;50636;45.596;5.258;2022-10-16T08:02:39;98833.25;;;29.40;33.76
64294;BME280;50636;45.596;5.258;2022-10-16T08:05:06;98832.94;;;29.50;33.64
64294;BME280;50636;45.596;5.258;2022-10-16T08:07:31;98831.38;;;29.32;33.85
64294;BME280;50636;45.596;5.258;2022-10-16T08:09:57;98822.31;;;29.36;33.85
64294;BME280;50636;45.596;5.258;2022-10-16T08:12:25;98834.66;;;29.55;33.36
64294;BME280;50636;45.596;5.258;2022-10-16T08:14:50;98817.25;;;29.00;33.67
64294;BME280;50636;45.596;5.258;2022-10-16T08:17:16;98826.84;;;28.31;35.56
64294;BME280;50636;45.596;5.258;2022-10-16T08:19:46;98816.50;;;28.16;35.00
64294;BME280;50636;45.596;5.258;2022-10-16T08:22:13;98821.72;;;27.81;35.22
64294;BME280;50636;45.596;5.258;2022-10-16T08:24:39;98823.03;;;27.83;34.92
64294;BME280;50636;45.596;5.258;2022-10-16T08:27:06;98823.09;;;27.92;35.09
64294;BME280;50636;45.596;5.258;2022-10-16T08:29:34;98826.91;;;27.91;34.85
64294;BME280;50636;45.596;5.258;2022-10-16T08:32:00;98840.06;;;27.93;35.37
64294;BME280;50636;45.596;5.258;2022-10-16T08:34:26;98826.09;;;27.91;34.70
64294;BME280;50636;45.596;5.258;2022-10-16T08:36:53;98829.94;;;28.07;34.69
64294;BME280;50636;45.596;5.258;2022-10-16T08:39:20;98842.53;;;28.12;34.18
64294;BME280;50636;45.596;5.258;2022-10-16T08:47:45;98847.72;;;28.57;33.55
64294;BME280;50636;45.596;5.258;2022-10-16T08:50:19;98846.97;;;28.82;33.28
64294;BME280;50636;45.596;5.258;2022-10-16T08:52:47;98850.28;;;28.62;33.55
64294;BME280;50636;45.596;5.258;2022-10-16T08:57:50;98847.91;;;28.69;33.68
64294;BME280;50636;45.596;5.258;2022-10-16T09:00:16;98849.19;;;28.89;33.29
64294;BME280;50636;45.596;5.258;2022-10-16T09:05:49;98845.66;;;29.50;32.03
64294;BME280;50636;45.596;5.258;2022-10-16T09:08:42;98849.91;;;29.59;32.22
64294;BME280;50636;45.596;5.258;2022-10-16T09:16:21;98846.72;;;30.73;30.52
64294;BME280;50636;45.596;5.258;2022-10-16T09:21:41;98833.91;;;32.19;29.46
64294;BME280;50636;45.596;5.258;2022-10-16T09:24:16;98844.59;;;31.54;29.28
64294;BME280;50636;45.596;5.258;2022-10-16T09:26:42;98854.25;;;31.88;28.33
64294;BME280;50636;45.596;5.258;2022-10-16T09:29:15;98856.50;;;31.98;28.93
64294;BME280;50636;45.596;5.258;2022-10-16T09:31:41;98852.88;;;32.43;28.02
64294;BME280;50636;45.596;5.258;2022-10-16T09:34:32;98862.88;;;33.33;27.58
64294;BME280;50636;45.596;5.258;2022-10-16T09:36:59;98861.66;;;33.46;26.16
64294;BME280;50636;45.596;5.258;2022-10-16T09:39:26;98862.16;;;33.08;26.21
64294;BME280;50636;45.596;5.258;2022-10-16T09:41:52;98869.34;;;32.88;27.07
64294;BME280;50636;45.596;5.258;2022-10-16T09:46:44;98857.41;;;31.78;27.79
64294;BME280;50636;45.596;5.258;2022-10-16T09:49:23;98867.78;;;31.63;27.81
64294;BME280;50636;45.596;5.258;2022-10-16T09:51:50;98865.69;;;31.48;28.93
64294;BME280;50636;45.596;5.258;2022-10-16T09:54:19;98862.03;;;31.77;28.48
64294;BME280;50636;45.596;5.258;2022-10-16T09:56:45;98872.19;;;31.68;27.67
64294;BME280;50636;45.596;5.258;2022-10-16T09:59:17;98856.38;;;31.37;27.88
64294;BME280;50636;45.596;5.258;2022-10-16T10:01:46;98875.59;;;31.11;28.76
64294;BME280;50636;45.596;5.258;2022-10-16T10:04:13;98875.63;;;31.23;28.63
64294;BME280;50636;45.596;5.258;2022-10-16T10:06:51;98854.75;;;31.23;28.35
64294;BME280;50636;45.596;5.258;2022-10-16T10:09:49;98873.78;;;31.15;28.35
64294;BME280;50636;45.596;5.258;2022-10-16T10:12:25;98865.41;;;30.65;28.82
64294;BME280;50636;45.596;5.258;2022-10-16T10:14:56;98877.97;;;30.40;29.17
64294;BME280;50636;45.596;5.258;2022-10-16T10:17:27;98879.94;;;30.31;30.55
64294;BME280;50636;45.596;5.258;2022-10-16T10:19:56;98862.94;;;30.52;29.71
64294;BME280;50636;45.596;5.258;2022-10-16T10:22:25;98876.22;;;30.65;29.63
64294;BME280;50636;45.596;5.258;2022-10-16T10:25:29;98877.53;;;30.89;29.30
64294;BME280;50636;45.596;5.258;2022-10-16T10:36:16;98863.28;;;31.92;27.85
64294;BME280;50636;45.596;5.258;2022-10-16T10:39:12;98861.25;;;32.51;27.22
64294;BME280;50636;45.596;5.258;2022-10-16T10:42:02;98856.94;;;32.50;26.90
64294;BME280;50636;45.596;5.258;2022-10-16T10:45:05;98855.66;;;31.61;28.22
64294;BME280;50636;45.596;5.258;2022-10-16T10:47:57;98850.81;;;31.00;29.26
64294;BME280;50636;45.596;5.258;2022-10-16T10:50:43;98862.13;;;30.81;29.16
64294;BME280;50636;45.596;5.258;2022-10-16T10:53:39;98848.28;;;30.53;29.89
64294;BME280;50636;45.596;5.258;2022-10-16T10:56:15;98851.69;;;30.41;29.98
64294;BME280;50636;45.596;5.258;2022-10-16T11:01:55;98845.97;;;30.63;30.10
64294;BME280;50636;45.596;5.258;2022-10-16T11:07:02;98852.50;;;30.83;29.60
64294;BME280;50636;45.596;5.258;2022-10-16T11:09:53;98839.31;;;31.03;29.20
64294;BME280;50636;45.596;5.258;2022-10-16T11:12:28;98839.38;;;31.15;28.91
64294;BME280;50636;45.596;5.258;2022-10-16T11:15:14;98844.81;;;31.28;28.80
64294;BME280;50636;45.596;5.258;2022-10-16T11:20:53;98834.56;;;31.00;29.07
64294;BME280;50636;45.596;5.258;2022-10-16T11:25:48;98841.56;;;31.01;29.14
64294;BME280;50636;45.596;5.258;2022-10-16T11:30:55;98837.72;;;30.81;29.36
64294;BME280;50636;45.596;5.258;2022-10-16T11:36:57;98811.00;;;30.50;29.57
64294;BME280;50636;45.596;5.258;2022-10-16T11:39:27;98822.50;;;29.87;30.89
64294;BME280;50636;45.596;5.258;2022-10-16T11:41:59;98825.00;;;30.22;29.72
64294;BME280;50636;45.596;5.258;2022-10-16T11:44:44;98818.56;;;30.05;29.97
64294;BME280;50636;45.596;5.258;2022-10-16T11:47:47;98813.31;;;30.09;30.21
64294;BME280;50636;45.596;5.258;2022-10-16T11:55:42;98794.84;;;29.64;31.52
64294;BME280;50636;45.596;5.258;2022-10-16T12:01:22;98821.00;;;29.98;31.70
64294;BME280;50636;45.596;5.258;2022-10-16T12:09:32;98811.28;;;30.78;30.62
64294;BME280;50636;45.596;5.258;2022-10-16T12:11:58;98808.03;;;30.63;30.30
64294;BME280;50636;45.596;5.258;2022-10-16T12:14:37;98810.38;;;30.53;31.10
64294;BME280;50636;45.596;5.258;2022-10-16T12:17:24;98796.88;;;30.65;30.71
64294;BME280;50636;45.596;5.258;2022-10-16T12:20:23;98788.81;;;30.77;31.73
64294;BME280;50636;45.596;5.258;2022-10-16T12:22:49;98794.38;;;30.60;30.76
64294;BME280;50636;45.596;5.258;2022-10-16T12:28:27;98793.75;;;30.33;32.08
64294;BME280;50636;45.596;5.258;2022-10-16T12:30:56;98777.66;;;30.37;31.41
64294;BME280;50636;45.596;5.258;2022-10-16T12:33:36;98796.47;;;30.54;31.25
64294;BME280;50636;45.596;5.258;2022-10-16T12:36:14;98765.44;;;30.73;30.82
64294;BME280;50636;45.596;5.258;2022-10-16T12:38:52;98781.97;;;30.59;31.20
64294;BME280;50636;45.596;5.258;2022-10-16T12:41:44;98746.88;;;30.12;31.58
64294;BME280;50636;45.596;5.258;2022-10-16T12:44:25;98761.09;;;29.79;33.70
64294;BME280;50636;45.596;5.258;2022-10-16T12:46:56;98781.38;;;29.55;32.42
64294;BME280;50636;45.596;5.258;2022-10-16T12:51:54;98770.75;;;29.41;34.43
64294;BME280;50636;45.596;5.258;2022-10-16T12:54:37;98781.25;;;29.43;33.52
64294;BME280;50636;45.596;5.258;2022-10-16T12:59:54;98765.16;;;28.56;34.87
64294;BME280;50636;45.596;5.258;2022-10-16T13:07:53;98779.25;;;28.44;35.81
64294;BME280;50636;45.596;5.258;2022-10-16T13:13:23;98783.03;;;28.43;36.14
64294;BME280;50636;45.596;5.258;2022-10-16T13:16:23;98777.50;;;28.39;36.19
64294;BME280;50636;45.596;5.258;2022-10-16T13:21:49;98779.38;;;28.30;36.36
64294;BME280;50636;45.596;5.258;2022-10-16T13:27:25;98798.41;;;28.16;37.39
64294;BME280;50636;45.596;5.258;2022-10-16T13:30:11;98775.38;;;28.01;36.99
64294;BME280;50636;45.596;5.258;2022-10-16T13:32:38;98791.38;;;27.66;37.60
64294;BME280;50636;45.596;5.258;2022-10-16T13:35:18;98784.09;;;27.36;38.00
64294;BME280;50636;45.596;5.258;2022-10-16T13:37:45;98782.75;;;27.24;38.56
64294;BME280;50636;45.596;5.258;2022-10-16T13:40:20;98786.31;;;27.34;38.06
64294;BME280;50636;45.596;5.258;2022-10-16T13:42:47;98790.47;;;27.40;37.87
64294;BME280;50636;45.596;5.258;2022-10-16T13:45:24;98785.34;;;27.29;36.94
64294;BME280;50636;45.596;5.258;2022-10-16T13:48:04;98793.28;;;26.89;38.28
64294;BME280;50636;45.596;5.258;2022-10-16T13:50:30;98790.84;;;26.79;38.55
64294;BME280;50636;45.596;5.258;2022-10-16T13:53:13;98803.63;;;26.96;38.32
64294;BME280;50636;45.596;5.258;2022-10-16T13:55:40;98798.22;;;26.96;39.08
64294;BME280;50636;45.596;5.258;2022-10-16T13:58:08;98828.94;;;27.09;38.53
64294;BME280;50636;45.596;5.258;2022-10-16T14:00:36;98806.41;;;27.05;38.48
64294;BME280;50636;45.596;5.258;2022-10-16T14:03:11;98808.88;;;26.79;38.50
64294;BME280;50636;45.596;5.258;2022-10-16T14:05:48;98799.63;;;26.57;40.74
64294;BME280;50636;45.596;5.258;2022-10-16T14:08:15;98800.91;;;25.96;46.00
64294;BME280;50636;45.596;5.258;2022-10-16T14:10:41;98824.47;;;25.05;46.01
64294;BME280;50636;45.596;5.258;2022-10-16T14:13:07;98814.69;;;24.58;46.69
64294;BME280;50636;45.596;5.258;2022-10-16T14:15:38;98821.88;;;24.38;46.62
64294;BME280;50636;45.596;5.258;2022-10-16T14:18:04;98811.00;;;24.48;46.68
64294;BME280;50636;45.596;5.258;2022-10-16T14:20:32;98825.72;;;24.75;46.64
64294;BME280;50636;45.596;5.258;2022-10-16T14:23:23;98805.53;;;24.97;46.12
64294;BME280;50636;45.596;5.258;2022-10-16T14:25:53;98827.66;;;25.26;44.53
64294;BME280;50636;45.596;5.258;2022-10-16T14:28:23;98804.31;;;25.41;43.68
64294;BME280;50636;45.596;5.258;2022-10-16T14:31:00;98811.78;;;25.44;43.19
64294;BME280;50636;45.596;5.258;2022-10-16T14:38:40;98814.13;;;25.78;43.36
64294;BME280;50636;45.596;5.258;2022-10-16T14:41:07;98818.31;;;25.84;43.66
64294;BME280;50636;45.596;5.258;2022-10-16T14:43:41;98813.22;;;25.83;44.14
64294;BME280;50636;45.596;5.258;2022-10-16T14:46:20;98811.53;;;25.87;44.77
64294;BME280;50636;45.596;5.258;2022-10-16T14:48:49;98816.03;;;25.78;44.18
64294;BME280;50636;45.596;5.258;2022-10-16T14:51:20;98823.69;;;25.70;44.17
64294;BME280;50636;45.596;5.258;2022-10-16T14:53:46;98815.88;;;25.55;43.66
64294;BME280;50636;45.596;5.258;2022-10-16T14:56:23;98823.25;;;25.49;45.39
64294;BME280;50636;45.596;5.258;2022-10-16T14:58:51;98826.25;;;25.62;43.52
64294;BME280;50636;45.596;5.258;2022-10-16T15:01:17;98828.03;;;25.52;43.49
64294;BME280;50636;45.596;5.258;2022-10-16T15:03:43;98838.06;;;25.47;43.43